createdAt,value
2016-09-02T00:04:09.138Z,"    0"
2016-09-02T00:09:06.096Z,"    0"
2016-09-02T00:14:02.870Z,"    0"
2016-09-02T00:18:59.527Z,"    0"
2016-09-02T00:23:56.020Z,"    0"
2016-09-02T00:28:53.506Z,"    0"
2016-09-02T00:33:50.252Z,"    0"
2016-09-02T00:38:46.936Z,"    0"
2016-09-02T00:43:43.395Z,"    0"
2016-09-02T00:48:39.877Z,"    0"
2016-09-02T00:53:38.819Z,"    0"
2016-09-02T00:58:35.150Z,"    0"
2016-09-02T01:03:31.856Z,"    0"
2016-09-02T01:08:28.646Z,"    0"
2016-09-02T01:13:25.252Z,"    0"
2016-09-02T01:18:21.938Z,"    0"
2016-09-02T01:23:19.763Z,"    0"
2016-09-02T01:28:15.971Z,"    0"
2016-09-02T01:33:12.527Z,"    0"
2016-09-02T01:38:10.154Z,"    0"
2016-09-02T01:43:06.822Z,"    0"
2016-09-02T01:48:03.458Z,"    0"
2016-09-02T01:53:00.399Z,"    0"
2016-09-02T01:57:56.997Z,"    0"
2016-09-02T02:02:53.503Z,"    0"
2016-09-02T02:07:49.866Z,"    0"
2016-09-02T02:12:47.283Z,"    0"
2016-09-02T02:17:44.242Z,"    0"
2016-09-02T02:22:40.537Z,"    0"
2016-09-02T02:27:37.084Z,"    0"
2016-09-02T02:32:33.740Z,"    0"
2016-09-02T02:37:30.498Z,"    0"
2016-09-02T02:42:27.349Z,"    0"
2016-09-02T02:47:24.226Z,"    0"
2016-09-02T02:52:20.867Z,"    0"
2016-09-02T02:57:17.814Z,"    0"
2016-09-02T03:02:14.504Z,"    0"
2016-09-02T03:07:10.975Z,"    0"
2016-09-02T03:12:07.748Z,"    0"
2016-09-02T03:17:04.418Z,"    0"
2016-09-02T03:22:01.088Z,"    0"
2016-09-02T03:26:57.467Z,"    0"
2016-09-02T03:31:54.053Z,"    0"
2016-09-02T03:36:50.862Z,"    0"
2016-09-02T03:41:47.417Z,"    0"
2016-09-02T03:46:43.962Z,"    0"
2016-09-02T03:51:40.655Z,"    0"
2016-09-02T03:56:37.078Z,"    0"
2016-09-02T04:01:33.551Z,"    0"
2016-09-02T04:06:30.693Z,"    0"
2016-09-02T04:11:27.211Z,"    0"
2016-09-02T04:16:23.743Z,"    0"
2016-09-02T04:21:20.321Z,"    0"
2016-09-02T04:26:17.000Z,"    8"
2016-09-02T04:31:13.543Z,"   12"
2016-09-02T04:36:10.133Z,"   24"
2016-09-02T04:41:06.627Z,"   28"
2016-09-02T04:46:05.810Z,"   36"
2016-09-02T04:51:01.739Z,"   52"
2016-09-02T04:55:59.425Z,"   68"
2016-09-02T05:00:55.805Z,"   92"
2016-09-02T05:05:52.587Z,"  120"
2016-09-02T05:10:49.313Z,"  148"
2016-09-02T05:15:45.869Z,"  276"
2016-09-02T05:20:43.058Z,"  268"
2016-09-02T05:25:40.007Z,"  256"
2016-09-02T05:30:36.651Z,"  340"
2016-09-02T05:35:33.242Z,"  620"
2016-09-02T05:40:30.036Z,"  796"
2016-09-02T05:45:26.753Z," 1064"
2016-09-02T05:50:23.458Z," 1112"
2016-09-02T05:55:20.122Z," 1204"
2016-09-02T06:00:16.653Z," 1140"
2016-09-02T06:05:13.989Z," 1140"
2016-09-02T06:10:12.378Z,"  908"
2016-09-02T06:15:08.893Z,"  988"
2016-09-02T06:20:05.525Z," 1188"
2016-09-02T06:25:02.560Z," 1380"
2016-09-02T06:30:00.693Z," 1480"
2016-09-02T06:34:56.835Z," 1608"
2016-09-02T06:39:53.480Z," 1668"
2016-09-02T06:44:50.631Z," 1860"
2016-09-02T06:49:47.683Z," 1956"
2016-09-02T06:54:44.522Z," 2120"
2016-09-02T06:59:41.169Z," 1796"
2016-09-02T07:04:39.600Z," 1812"
2016-09-02T07:09:36.503Z," 1848"
2016-09-02T07:14:33.315Z," 2052"
2016-09-02T07:19:30.022Z," 2052"
2016-09-02T07:24:26.700Z," 2480"
2016-09-02T07:29:23.472Z," 2688"
2016-09-02T07:34:20.306Z," 2508"
2016-09-02T07:39:17.005Z," 2596"
2016-09-02T07:44:13.893Z," 2680"
2016-09-02T07:49:10.593Z," 3452"
2016-09-02T07:54:07.430Z,11516
2016-09-02T07:59:04.128Z," 8620"
2016-09-02T08:04:00.783Z," 6352"
2016-09-02T08:09:00.665Z," 4524"
2016-09-02T08:13:57.192Z," 5740"
2016-09-02T08:18:54.027Z,10620
2016-09-02T08:23:50.853Z,10644
2016-09-02T08:28:48.012Z," 2832"
2016-09-02T08:33:44.200Z," 3128"
2016-09-02T08:38:41.426Z," 2860"
2016-09-02T08:43:40.857Z," 2908"
2016-09-02T08:48:37.181Z," 2812"
2016-09-02T08:53:33.801Z," 2756"
2016-09-02T08:58:30.463Z," 2596"
2016-09-02T09:03:27.223Z," 2468"
2016-09-02T09:08:23.527Z," 2408"
2016-09-02T09:13:20.038Z," 2616"
2016-09-02T09:18:16.725Z," 2648"
2016-09-02T09:23:13.090Z," 2232"
2016-09-02T09:28:10.446Z," 2132"
2016-09-02T09:33:06.824Z," 1852"
2016-09-02T09:38:03.295Z," 1712"
2016-09-02T09:43:00.031Z," 1564"
2016-09-02T09:47:59.086Z," 1736"
2016-09-02T09:52:55.061Z," 2192"
2016-09-02T09:57:54.008Z," 2480"
2016-09-02T10:02:50.059Z," 2056"
2016-09-02T10:07:46.686Z," 1964"
2016-09-02T10:12:43.448Z," 1672"
2016-09-02T10:17:42.529Z," 1672"
2016-09-02T10:22:39.126Z," 1848"
2016-09-02T10:27:35.749Z," 1284"
2016-09-02T10:32:32.266Z," 1508"
2016-09-02T10:37:30.663Z," 1664"
2016-09-02T10:42:26.963Z," 1244"
2016-09-02T10:47:23.479Z," 1268"
2016-09-02T10:52:20.150Z," 1184"
2016-09-02T10:57:16.584Z," 1216"
2016-09-02T11:02:13.342Z," 1348"
2016-09-02T11:07:09.824Z," 1352"
2016-09-02T11:12:06.602Z," 1212"
2016-09-02T11:17:03.355Z," 1224"
2016-09-02T11:22:00.164Z," 1088"
2016-09-02T11:26:56.768Z," 1108"
2016-09-02T11:31:53.792Z," 1132"
2016-09-02T11:36:50.534Z," 1228"
2016-09-02T11:41:47.339Z," 1060"
2016-09-02T11:46:43.901Z," 1204"
2016-09-02T11:51:41.011Z," 1176"
2016-09-02T11:56:37.656Z," 1100"
2016-09-02T12:01:34.438Z," 1096"
2016-09-02T12:06:33.726Z," 1020"
2016-09-02T12:11:29.999Z," 1044"
2016-09-02T12:16:26.612Z," 1000"
2016-09-02T12:21:23.258Z,"  992"
2016-09-02T12:26:22.950Z,"  964"
2016-09-02T12:31:18.955Z,"  964"
2016-09-02T12:36:15.682Z,"  976"
2016-09-02T12:41:15.148Z,"  928"
2016-09-02T12:46:11.096Z,"  944"
2016-09-02T12:51:07.620Z,"  952"
2016-09-02T12:56:04.651Z,"  944"
2016-09-02T13:01:01.203Z,"  928"
2016-09-02T13:06:00.368Z,"  892"
2016-09-02T13:10:56.599Z,"  836"
2016-09-02T13:15:53.249Z,"  796"
2016-09-02T13:20:49.770Z,"  796"
2016-09-02T13:25:46.421Z,"  784"
2016-09-02T13:30:44.174Z,"  768"
2016-09-02T13:35:40.398Z,"  744"
2016-09-02T13:40:37.155Z,"  712"
2016-09-02T13:45:34.965Z,"  792"
2016-09-02T13:50:31.601Z,"  760"
2016-09-02T13:55:28.423Z,"  764"
2016-09-02T14:00:24.804Z,"  760"
2016-09-02T14:05:21.498Z,"  744"
2016-09-02T14:10:18.149Z,"  712"
2016-09-02T14:15:14.955Z,"  708"
2016-09-02T14:20:11.593Z,"  764"
2016-09-02T14:25:08.286Z,"  844"
2016-09-02T14:30:05.299Z,"  892"
2016-09-02T14:35:02.064Z,"  892"
2016-09-02T14:39:58.932Z,"  796"
2016-09-02T14:44:56.552Z,"  824"
2016-09-02T14:49:59.292Z,"  788"
2016-09-02T14:54:54.947Z,"  692"
2016-09-02T14:59:51.806Z,"  760"
2016-09-02T15:04:48.464Z,"  728"
2016-09-02T15:09:45.139Z,"  848"
2016-09-02T15:14:41.729Z,"  796"
2016-09-02T15:19:38.362Z,"  760"
2016-09-02T15:24:35.171Z,"  772"
2016-09-02T15:29:31.827Z,"  836"
2016-09-02T15:34:28.316Z,"  840"
2016-09-02T15:39:25.038Z,"  932"
2016-09-02T15:44:24.078Z,"  768"
2016-09-02T15:49:20.117Z,"  768"
2016-09-02T15:54:16.612Z,"  700"
2016-09-02T15:59:13.468Z,"  576"
2016-09-02T16:04:09.987Z,"  516"
2016-09-02T16:09:09.122Z,"  488"
2016-09-02T16:14:05.176Z,"  540"
2016-09-02T16:19:01.827Z,"  560"
2016-09-02T16:23:59.306Z,"  536"
2016-09-02T16:28:55.964Z,"  508"
2016-09-02T16:33:52.714Z,"  504"
2016-09-02T16:38:49.795Z,"  484"
2016-09-02T16:43:46.230Z,"  520"
2016-09-02T16:48:42.972Z,"  528"
2016-09-02T16:53:40.061Z,"  500"
2016-09-02T16:58:36.941Z,"  472"
2016-09-02T17:03:33.697Z,"  532"
2016-09-02T17:08:30.192Z,"  516"
2016-09-02T17:13:27.365Z,"  380"
2016-09-02T17:18:23.957Z,"  248"
2016-09-02T17:23:21.827Z,"  148"
2016-09-02T17:28:18.229Z,"  128"
2016-09-02T17:33:14.791Z,"  100"
2016-09-02T17:38:11.567Z,"   80"
2016-09-02T17:43:08.678Z,"   64"
2016-09-02T17:48:05.206Z,"   36"
2016-09-02T17:53:02.251Z,"   24"
2016-09-02T17:57:59.378Z,"   20"
2016-09-02T18:02:58.457Z,"   12"
2016-09-02T18:07:54.281Z,"    4"
2016-09-02T18:12:50.675Z,"    4"
2016-09-02T18:17:47.500Z,"    4"
2016-09-02T18:22:44.126Z,"    4"
2016-09-02T18:27:40.883Z,"    0"
2016-09-02T18:32:39.926Z,"    0"
2016-09-02T18:37:36.126Z,"    0"
2016-09-02T18:42:34.891Z,"    0"
2016-09-02T18:47:30.926Z,"    0"
2016-09-02T18:52:27.683Z,"    0"
2016-09-02T18:57:24.220Z,"    0"
2016-09-02T19:02:21.494Z,"    0"
2016-09-02T19:07:18.281Z,"    0"
2016-09-02T19:12:15.865Z,"    0"
2016-09-02T19:17:12.397Z,"    0"
2016-09-02T19:22:08.770Z,"    0"
2016-09-02T19:27:06.128Z,"    0"
2016-09-02T19:32:03.034Z,"    0"
2016-09-02T19:36:59.852Z,"    0"
2016-09-02T19:41:56.502Z,"    0"
2016-09-02T19:46:53.347Z,"    0"
2016-09-02T19:51:50.102Z,"    0"
2016-09-02T19:56:46.851Z,"    0"
2016-09-02T20:01:43.464Z,"    0"
2016-09-02T20:06:40.511Z,"    0"
2016-09-02T20:11:37.153Z,"    0"
2016-09-02T20:16:34.670Z,"    0"
2016-09-02T20:21:33.644Z,"    0"
2016-09-02T20:26:29.704Z,"    0"
2016-09-02T20:31:26.533Z,"    0"
2016-09-02T20:36:23.035Z,"    0"
2016-09-02T20:41:20.961Z,"    0"
2016-09-02T20:46:17.376Z,"    0"
2016-09-02T20:51:14.311Z,"    0"
2016-09-02T20:56:11.515Z,"    0"
2016-09-02T21:01:11.091Z,"    0"
2016-09-02T21:06:07.295Z,"    0"
2016-09-02T21:11:04.191Z,"    0"
2016-09-02T21:16:00.898Z,"    0"
2016-09-02T21:20:57.635Z,"    0"
2016-09-02T21:25:54.306Z,"    0"
2016-09-02T21:30:51.099Z,"    0"
2016-09-02T21:35:48.252Z,"    0"
2016-09-02T21:40:44.756Z,"    0"
2016-09-02T21:45:43.926Z,"    0"
2016-09-02T21:50:39.914Z,"    0"
2016-09-02T21:55:36.952Z,"    0"
2016-09-02T22:00:33.705Z,"    0"
2016-09-02T22:05:30.342Z,"    0"
2016-09-02T22:10:27.263Z,"    0"
2016-09-02T22:15:23.783Z,"    0"
2016-09-02T22:20:20.454Z,"    0"
2016-09-02T22:25:17.074Z,"    0"
2016-09-02T22:30:13.746Z,"    0"
2016-09-02T22:35:10.704Z,"    0"
2016-09-02T22:40:07.263Z,"    0"
2016-09-02T22:45:04.361Z,"    0"
2016-09-02T22:50:00.959Z,"    0"
2016-09-02T22:54:57.573Z,"    0"
2016-09-02T22:59:54.565Z,"    0"
2016-09-02T23:04:51.322Z,"    0"
2016-09-02T23:09:48.005Z,"    0"
2016-09-02T23:14:44.428Z,"    0"
2016-09-02T23:19:41.128Z,"    0"
2016-09-02T23:24:37.995Z,"    0"
2016-09-02T23:44:40.655Z,"    0"
2016-09-02T23:49:37.251Z,"    0"
2016-09-02T23:54:33.615Z,"    0"
2016-09-02T23:59:30.174Z,"    0"
